x

St. Augustine, Fl (sauf1) Weather Station

5:00am - Mon 20th Aug 2018 All times are EDT. -4 hours from GMT.

  • Wind
    7mph, 8mph gusts
  • Sea Temp 79°f
  • Air Temp 73°f
  • Sea Pressure 1017.4mb
  • St. Augustine, Fl
  • St. Augustine, Fl

More Historic Weather Station data

Upgrade to MSW Pro to gain access to the past 30 days of data for over 8000 Wavebouys and Weather Stations around the globe.

Join

Comparision Forecast

View Surf forecast
   
Mon 08/20 5:00am 7 8 mph 1017.4mb 79f 73f
4:00am 3 5 mph 1017.6mb 79f 74f
3:00am 9 10 mph 1017.8mb 79f 74f
2:00am 8 8 mph 1018mb 79f 75f
1:00am 2 3 mph 1017.9mb 79f 75f
12:00am 3 3 mph 1018.1mb 80f 74f
Sun 08/19 11:00pm 2 3 mph 1018.6mb 80f 74f
10:00pm 5 6 mph 1018.3mb 79f 78f
9:00pm 18 20 mph 1017.5mb 78f 81f
8:00pm 17 18 mph 1017.2mb 78f 81f
7:00pm 15 16 mph 1016.2mb 78f 81f
6:00pm 11 13 mph 1016.3mb 78f 81f
5:00pm 13 14 mph 1016.4mb 78f 82f
4:00pm 11 13 mph 1016.9mb 78f 81f
3:00pm 10 11 mph 1017.3mb 78f 81f
2:00pm 13 14 mph 1018mb 78f 80f
1:00pm 10 10 mph 1018.6mb 78f 80f
12:00pm 8 8 mph 1019.1mb 78f 80f
11:00am 6 6 mph 1019.4mb 78f 78f
10:00am 5 5 mph 1019mb 78f 78f
9:00am 3 3 mph 1018.6mb 78f 78f
8:00am 3 5 mph 1018.1mb 78f 78f
6:00am 6 8 mph 1016.7mb 79f 77f
5:00am 7 8 mph 1016.1mb 79f 77f
4:00am 8 10 mph 1016.3mb 79f 78f
3:00am 9 11 mph 1016.5mb 79f 78f
2:00am 7 8 mph 1017mb 79f 79f
1:00am 7 8 mph 1017.6mb 79f 80f
12:00am 1 1 mph 1017.9mb 79f 80f
Sat 08/18 11:00pm 3 3 mph 1018mb 79f 80f
10:00pm 3 3 mph 1018.1mb 79f 80f
9:00pm 11 13 mph 1017.9mb 79f 80f
8:00pm 15 17 mph 1017.3mb 78f 81f
7:00pm 11 13 mph 1017mb 78f 82f
6:00pm 14 15 mph 1017.2mb 78f 82f
5:00pm 14 15 mph 1017.5mb 78f 82f
4:00pm 13 14 mph 1018mb 78f 82f
3:00pm 13 14 mph 1018.8mb 78f 81f
2:00pm 11 13 mph 1019.9mb 78f 80f
1:00pm 11 13 mph 1020.6mb 78f 80f
12:00pm 10 11 mph 1021.3mb 78f 80f
11:00am 8 8 mph 1021.6mb 78f 80f
10:00am 5 7 mph 1021.7mb 78f 86f
9:00am 9 10 mph 1021.5mb 79f 82f
8:00am 5 6 mph 1021.1mb 79f 79f
7:00am 5 7 mph 1020.6mb 79f 77f
6:00am 9 9 mph 1020.2mb 79f 77f
5:00am 6 7 mph 1020.6mb 79f 77f
4:00am 5 6 mph 1021mb 80f 78f
3:00am 5 8 mph 1021.3mb 80f 79f
2:00am 9 9 mph 1021.5mb 80f 78f
1:00am 5 6 mph 1022.3mb 80f 78f
12:00am 6 6 mph 1022.3mb 80f 79f
Fri 08/17 11:00pm 9 11 mph 1021.9mb 80f 79f
10:00pm 10 11 mph 1021.5mb 80f 80f
9:00pm 8 9 mph 1021.3mb 80f 80f
8:00pm 10 11 mph 1020.9mb 81f 80f
7:00pm 8 8 mph 1021.3mb 81f 83f
6:00pm 15 16 mph 1021.2mb 81f 81f
5:00pm 16 17 mph 1020.6mb 80f 81f
4:00pm 14 16 mph 1021.1mb 79f 81f
3:00pm 15 16 mph 1021.7mb 79f 82f
2:00pm 15 17 mph 1022.5mb 78f 81f
1:00pm 14 14 mph 1023.1mb 78f 81f
12:00pm 11 13 mph 1023.4mb 78f 80f
11:00am 9 9 mph 1023.5mb 78f 80f
10:00am 8 10 mph 1023.4mb 78f 80f
9:00am 6 7 mph 1023.4mb 78f 79f
8:00am 5 5 mph 1022.8mb 78f 78f
7:00am 2 3 mph 1022.2mb 78f 77f
6:00am 7 7 mph 1021.8mb 78f 77f
5:00am 9 9 mph 1021.6mb 78f 78f
4:00am 6 7 mph 1021.9mb 78f 77f
3:00am 3 5 mph 1022.1mb 78f 77f
2:00am 3 3 mph 1022.4mb 79f 78f
1:00am 2 3 mph 1023.3mb 79f 77f
12:00am  -  1 mph 1023.5mb 80f 77f
Thu 08/16 11:00pm 3 5 mph 1023.3mb 80f 76f
10:00pm 2 3 mph 1022.8mb 80f 77f
9:00pm 3 5 mph 1022.2mb 80f 78f
8:00pm 9 10 mph 1022.3mb 80f 81f
7:00pm 9 10 mph 1021.5mb 79f 82f
6:00pm 15 16 mph 1021mb 79f 82f
5:00pm 11 14 mph 1020.8mb 78f 82f
4:00pm 11 13 mph 1021.1mb 78f 82f
3:00pm 13 14 mph 1021.7mb 78f 82f
2:00pm 11 11 mph 1022mb 78f 82f
1:00pm 13 14 mph 1022.4mb 78f 81f
12:00pm 8 8 mph 1023.1mb 78f 80f